Time;durP1;ratioP1;P1;durP2;ratioP2;P2;SDS_P1;SDS_P2;PMS_P1;PMS_P2;Temp;Humidity;BMP_temperature;BMP_pressure;BME280_temperature;BME280_humidity;BME280_pressure;Samples;Min_cycle;Max_cycle;Signal;HPM_P1;HPM_P2
2021/12/21 00:00:23;;;;;;;13.25;7.05;;;-0.40;99.90;;;;;;5086836;28;20040;-68
2021/12/21 00:02:51;;;;;;;13.18;7.18;;;-0.40;99.90;;;;;;5088084;28;20499;-68
2021/12/21 00:05:20;;;;;;;7.78;5.95;;;-0.50;99.90;;;;;;5082326;28;20108;-70
2021/12/21 00:07:51;;;;;;;13.32;6.78;;;-0.40;99.90;;;;;;5084073;28;20542;-69
2021/12/21 00:10:19;;;;;;;10.43;6.03;;;-0.40;99.90;;;;;;5089965;28;20059;-70
2021/12/21 00:15:38;;;;;;;12.82;6.80;;;-0.60;99.90;;;;;;5093021;28;20044;-70
2021/12/21 00:23:35;;;;;;;9.55;6.28;;;-0.70;99.90;;;;;;5091778;28;20036;-68
2021/12/21 00:26:16;;;;;;;11.65;6.45;;;-0.70;99.90;;;;;;5074981;28;20043;-69
2021/12/21 00:28:56;;;;;;;11.50;7.13;;;-0.60;99.90;;;;;;5089874;28;20035;-69
2021/12/21 00:31:23;;;;;;;11.20;6.32;;;-0.20;99.90;;;;;;5076593;28;20079;-70
2021/12/21 00:33:50;;;;;;;16.55;9.25;;;-0.80;99.90;;;;;;5091478;28;20047;-70
2021/12/21 00:36:17;;;;;;;21.48;10.75;;;-0.60;99.90;;;;;;5092251;28;20114;-69
2021/12/21 00:38:45;;;;;;;21.80;10.50;;;-0.50;99.90;;;;;;5091136;28;20052;-70
2021/12/21 00:41:11;;;;;;;16.15;9.52;;;-0.50;99.90;;;;;;5091244;28;20059;-70
2021/12/21 00:43:37;;;;;;;21.40;11.02;;;-0.60;99.90;;;;;;5090794;28;20036;-70
2021/12/21 00:46:03;;;;;;;23.42;11.85;;;-0.50;99.90;;;;;;5092266;28;20063;-70
2021/12/21 00:48:31;;;;;;;27.48;13.68;;;-0.40;99.90;;;;;;5092638;28;20042;-70
2021/12/21 00:50:58;;;;;;;25.20;13.10;;;-0.60;99.90;;;;;;5089436;28;20560;-70
2021/12/21 00:53:24;;;;;;;23.77;12.77;;;-0.50;99.90;;;;;;5089554;28;20945;-69
2021/12/21 00:55:50;;;;;;;21.45;11.80;;;-0.60;99.90;;;;;;5091123;28;20426;-70
2021/12/21 00:58:16;;;;;;;22.00;12.07;;;-0.50;99.90;;;;;;5092255;28;20127;-69
2021/12/21 01:00:42;;;;;;;18.73;12.77;;;-0.60;99.90;;;;;;5094852;28;20123;-70
2021/12/21 01:03:11;;;;;;;17.33;10.80;;;-0.70;99.90;;;;;;5093469;28;20062;-70
2021/12/21 01:06:10;;;;;;;15.38;9.98;;;-0.60;99.90;;;;;;5087297;28;20048;-71
2021/12/21 01:08:28;;;;;;;13.48;9.65;;;-0.70;99.90;;;;;;5098162;28;20039;-69
2021/12/21 01:11:18;;;;;;;17.50;10.43;;;-0.70;99.90;;;;;;5088262;28;20058;-70
2021/12/21 01:13:55;;;;;;;17.85;10.52;;;-0.70;99.90;;;;;;5091303;28;20056;-69
2021/12/21 01:16:35;;;;;;;21.00;10.07;;;-0.70;99.90;;;;;;5090371;28;20051;-70
2021/12/21 01:19:16;;;;;;;18.67;11.13;;;-0.70;99.90;;;;;;5077378;28;20048;-69
2021/12/21 01:22:10;;;;;;;16.02;9.70;;;-0.70;99.90;;;;;;5090401;28;20118;-70
2021/12/21 01:27:18;;;;;;;16.23;9.88;;;-0.80;99.90;;;;;;5090680;28;20040;-72
2021/12/21 01:32:23;;;;;;;17.35;10.80;;;-1.00;99.90;;;;;;5092636;28;20483;-69
2021/12/21 01:35:11;;;;;;;15.88;9.45;;;-0.90;99.90;;;;;;5091185;28;20484;-71
2021/12/21 01:37:56;;;;;;;15.10;9.48;;;-0.90;99.90;;;;;;5092733;28;20032;-71
2021/12/21 01:51:15;;;;;;;;;;;-1.00;99.90;;;;;;5090562;28;20054;-72
2021/12/21 01:53:42;;;;;;;14.98;8.73;;;-0.80;99.90;;;;;;5091651;28;19924;-71
2021/12/21 01:56:09;;;;;;;16.55;8.98;;;-0.90;99.90;;;;;;5089649;28;20072;-72
2021/12/21 01:58:37;;;;;;;18.10;10.98;;;-0.70;99.90;;;;;;5073872;28;20050;-70
2021/12/21 02:01:12;;;;;;;36.63;16.48;;;-0.10;99.90;;;;;;5094837;28;20048;-71
2021/12/21 02:03:39;;;;;;;36.47;18.23;;;-0.80;99.90;;;;;;5091131;28;20048;-70
2021/12/21 02:06:05;;;;;;;36.30;17.52;;;-0.60;99.90;;;;;;5088907;28;20040;-70
2021/12/21 02:08:31;;;;;;;33.53;18.30;;;-0.70;99.90;;;;;;5064427;28;20032;-71
2021/12/21 02:11:03;;;;;;;31.08;16.40;;;-0.80;99.90;;;;;;5069109;28;20051;-70
2021/12/21 02:13:32;;;;;;;27.13;13.98;;;-0.70;99.90;;;;;;5088486;28;20036;-71
2021/12/21 02:15:59;;;;;;;25.83;14.60;;;-0.80;99.90;;;;;;5090205;28;20414;-69
2021/12/21 02:18:37;;;;;;;26.40;13.52;;;-0.80;99.90;;;;;;5090664;28;20040;-71
2021/12/21 02:23:50;;;;;;;26.67;14.38;;;-0.70;99.90;;;;;;5090607;28;20040;-69
2021/12/21 02:31:07;;;;;;;21.02;11.88;;;-0.70;99.90;;;;;;5090243;28;20051;-69
2021/12/21 02:33:34;;;;;;;17.75;11.13;;;-0.70;99.90;;;;;;5087361;28;20043;-70
2021/12/21 02:36:00;;;;;;;17.80;11.80;;;-0.50;99.90;;;;;;5093209;28;20048;-71
2021/12/21 02:38:26;;;;;;;22.55;10.73;;;-0.60;99.90;;;;;;5092590;28;20036;-70
2021/12/21 02:40:53;;;;;;;19.40;11.80;;;-0.40;99.90;;;;;;5072740;28;20420;-71
2021/12/21 02:43:19;;;;;;;18.17;11.20;;;0.60;99.90;;;;;;5089506;28;20040;-70
2021/12/21 02:45:45;;;;;;;15.57;9.98;;;-0.40;99.90;;;;;;5090237;28;20036;-70
2021/12/21 02:48:11;;;;;;;13.85;9.30;;;-0.50;99.90;;;;;;5090130;28;20115;-71
2021/12/21 02:50:38;;;;;;;15.20;9.48;;;-0.50;99.90;;;;;;5090061;28;20059;-70
2021/12/21 02:53:05;;;;;;;17.42;9.40;;;-0.60;99.90;;;;;;5090640;28;20120;-71
2021/12/21 02:55:31;;;;;;;18.55;9.50;;;-0.20;99.90;;;;;;5091378;28;20106;-70
2021/12/21 02:57:57;;;;;;;15.60;9.35;;;-0.60;99.90;;;;;;5090432;28;20044;-70
2021/12/21 03:00:28;;;;;;;14.77;9.98;;;-0.70;99.90;;;;;;5087881;28;20115;-70
2021/12/21 03:02:54;;;;;;;18.42;9.60;;;-0.80;99.90;;;;;;5085556;28;20052;-70
2021/12/21 03:05:21;;;;;;;15.95;9.68;;;-0.70;99.90;;;;;;5091458;28;20387;-70
2021/12/21 03:10:15;;;;;;;12.95;9.18;;;-0.30;99.90;;;;;;5086460;28;20048;-69
2021/12/21 03:15:16;;;;;;;14.50;9.20;;;-0.80;99.90;;;;;;5088890;28;20392;-70
2021/12/21 03:17:42;;;;;;;15.13;9.10;;;-1.10;99.90;;;;;;5090047;28;20316;-72
2021/12/21 03:20:07;;;;;;;15.30;9.05;;;-1.20;99.90;;;;;;5088365;28;20036;-72
2021/12/21 03:22:33;;;;;;;17.30;8.98;;;-0.90;99.90;;;;;;5090470;28;20040;-69
2021/12/21 03:24:59;;;;;;;14.68;8.95;;;-1.00;99.90;;;;;;5088574;28;20067;-70
2021/12/21 03:27:24;;;;;;;14.95;9.38;;;-1.10;99.90;;;;;;5087801;28;20043;-71
2021/12/21 03:29:50;;;;;;;15.77;9.85;;;-0.70;99.90;;;;;;5089914;28;20040;-71
2021/12/21 03:32:16;;;;;;;20.52;10.95;;;-0.60;99.90;;;;;;5090641;28;20048;-71
2021/12/21 03:34:41;;;;;;;20.92;11.63;;;-0.50;99.90;;;;;;5086288;28;20491;-69
2021/12/21 03:37:12;;;;;;;21.40;11.65;;;-0.50;99.90;;;;;;5091716;28;20082;-71
2021/12/21 03:39:43;;;;;;;22.13;11.80;;;-0.40;99.90;;;;;;5089939;28;20063;-71
2021/12/21 03:42:11;;;;;;;28.75;13.70;;;-0.40;99.90;;;;;;5088725;28;20042;-71
2021/12/21 03:44:37;;;;;;;24.42;12.15;;;-0.50;99.90;;;;;;5070091;28;20044;-71
2021/12/21 03:47:04;;;;;;;27.55;14.15;;;-0.40;99.90;;;;;;5091069;28;20111;-72
2021/12/21 03:52:18;;;;;;;25.70;11.95;;;-0.50;99.90;;;;;;5091569;28;20040;-71
2021/12/21 03:54:48;;;;;;;19.25;12.52;;;-0.50;99.90;;;;;;5094886;28;20032;-71
2021/12/21 03:57:14;;;;;;;24.00;12.27;;;-0.20;99.90;;;;;;5093718;28;20047;-70
2021/12/21 03:59:43;;;;;;;15.88;9.75;;;-0.30;99.90;;;;;;5093198;28;20044;-72
2021/12/21 04:02:11;;;;;;;18.15;8.90;;;-0.50;99.90;;;;;;5092870;28;20364;-71
2021/12/21 04:04:37;;;;;;;15.80;8.82;;;-0.50;99.90;;;;;;5092997;28;20102;-70
2021/12/21 04:07:03;;;;;;;16.50;9.15;;;-0.60;99.90;;;;;;5090644;28;20036;-69
2021/12/21 04:09:29;;;;;;;15.88;9.77;;;-0.70;99.90;;;;;;5088072;28;20043;-71
2021/12/21 04:11:54;;;;;;;16.60;9.13;;;-0.40;99.90;;;;;;5090496;28;20032;-69
2021/12/21 04:14:20;;;;;;;15.50;8.68;;;-0.50;99.90;;;;;;5095026;28;20040;-70
2021/12/21 04:16:46;;;;;;;15.35;8.43;;;-0.60;99.90;;;;;;5092742;28;20044;-70
2021/12/21 04:19:13;;;;;;;14.90;8.10;;;-0.80;99.90;;;;;;5092856;28;20050;-71
2021/12/21 04:21:39;;;;;;;14.23;8.10;;;-0.70;99.90;;;;;;5092855;28;20051;-72
2021/12/21 04:24:05;;;;;;;12.98;8.18;;;-0.90;99.90;;;;;;5093864;28;20090;-72
2021/12/21 04:26:31;;;;;;;13.32;8.43;;;-1.00;99.90;;;;;;5092781;28;20486;-71
2021/12/21 04:28:57;;;;;;;14.95;9.40;;;-1.00;99.90;;;;;;5092808;28;20040;-70
2021/12/21 04:31:22;;;;;;;16.15;8.95;;;-0.80;99.90;;;;;;5085700;28;20494;-71
2021/12/21 04:33:48;;;;;;;12.90;8.63;;;-0.90;99.90;;;;;;5092820;28;20523;-72
2021/12/21 04:36:14;;;;;;;14.57;8.05;;;-0.90;99.90;;;;;;5092077;28;20383;-69
2021/12/21 04:38:44;;;;;;;14.63;7.40;;;-1.10;99.90;;;;;;5092213;28;20040;-70
2021/12/21 04:41:15;;;;;;;13.15;8.20;;;-1.00;99.90;;;;;;5092045;28;20051;-70
2021/12/21 04:43:42;;;;;;;13.10;7.05;;;-0.90;99.90;;;;;;5093860;28;20040;-72
2021/12/21 04:46:08;;;;;;;16.25;8.13;;;-1.10;99.90;;;;;;5093851;28;20395;-72
2021/12/21 04:48:35;;;;;;;12.68;7.63;;;-0.90;99.90;;;;;;5092884;28;20036;-71
2021/12/21 04:51:01;;;;;;;12.70;7.85;;;-1.10;99.90;;;;;;5091971;28;20048;-72
2021/12/21 04:53:27;;;;;;;12.85;7.65;;;-0.80;99.90;;;;;;5087509;28;20039;-73
2021/12/21 04:55:53;;;;;;;17.15;8.15;;;0.60;99.90;;;;;;5073928;28;20046;-71
2021/12/21 04:58:19;;;;;;;13.98;9.18;;;-1.00;99.90;;;;;;5080514;28;20400;-71
2021/12/21 05:00:46;;;;;;;15.18;7.25;;;-0.80;99.90;;;;;;5092210;28;20042;-72
2021/12/21 05:03:12;;;;;;;14.60;8.05;;;-1.00;99.90;;;;;;5099390;28;20048;-71
2021/12/21 05:05:37;;;;;;;16.17;8.77;;;-0.30;99.90;;;;;;5082889;28;20047;-71
2021/12/21 05:08:21;;;;;;;14.23;8.05;;;-0.80;99.90;;;;;;5086701;28;20040;-70
2021/12/21 05:10:51;;;;;;;12.45;7.53;;;-1.10;99.90;;;;;;5085945;28;20048;-70
2021/12/21 05:13:18;;;;;;;10.65;7.72;;;-0.80;99.90;;;;;;5092178;28;20044;-69
2021/12/21 05:15:45;;;;;;;10.43;6.78;;;-0.70;99.90;;;;;;5092777;28;20035;-72
2021/12/21 05:18:11;;;;;;;14.95;7.25;;;-1.00;99.90;;;;;;5092107;28;20039;-69
2021/12/21 05:20:38;;;;;;;14.30;8.55;;;-1.00;99.90;;;;;;5091082;28;20080;-72
2021/12/21 05:23:04;;;;;;;13.63;7.63;;;-0.90;99.90;;;;;;5090048;28;20071;-71
2021/12/21 05:25:30;;;;;;;12.13;6.78;;;-0.50;99.90;;;;;;5092331;28;20044;-71
2021/12/21 05:27:56;;;;;;;15.93;7.50;;;-1.00;99.90;;;;;;5093978;28;20028;-73
2021/12/21 05:30:23;;;;;;;10.77;6.93;;;-1.00;99.90;;;;;;5090971;28;20055;-72
2021/12/21 05:32:49;;;;;;;7.15;5.95;;;-1.00;99.90;;;;;;5089902;28;20084;-71
2021/12/21 05:35:16;;;;;;;10.63;6.45;;;0.00;99.90;;;;;;5090701;28;20097;-73
2021/12/21 05:37:42;;;;;;;8.80;6.20;;;-0.60;99.90;;;;;;5093282;28;20072;-70
2021/12/21 05:40:14;;;;;;;12.75;6.95;;;-0.70;99.90;;;;;;5087042;28;20041;-72
2021/12/21 05:42:41;;;;;;;10.23;7.05;;;-0.70;99.90;;;;;;5065754;28;20063;-72
2021/12/21 05:45:09;;;;;;;12.02;6.65;;;-0.80;99.90;;;;;;5071791;28;20091;-71
2021/12/21 05:47:35;;;;;;;12.82;6.45;;;-1.00;99.90;;;;;;5073940;28;20074;-72
2021/12/21 05:50:02;;;;;;;9.57;6.18;;;-1.00;99.90;;;;;;5090884;28;20040;-71
2021/12/21 05:52:28;;;;;;;11.70;6.88;;;-0.80;99.90;;;;;;5089992;28;20544;-72
2021/12/21 05:54:53;;;;;;;11.27;6.60;;;-1.10;99.90;;;;;;5089138;28;20040;-73
2021/12/21 05:57:19;;;;;;;12.65;7.30;;;-0.90;99.90;;;;;;5090419;28;20040;-72
2021/12/21 05:59:45;;;;;;;18.20;7.72;;;-1.00;99.90;;;;;;5075475;28;20113;-72
2021/12/21 06:02:10;;;;;;;12.40;7.93;;;-0.90;99.90;;;;;;5092053;28;20543;-73
2021/12/21 06:04:36;;;;;;;11.35;7.13;;;0.20;99.90;;;;;;5052392;28;20044;-72
2021/12/21 06:07:02;;;;;;;10.23;7.00;;;-1.00;99.90;;;;;;5069989;28;20032;-73
2021/12/21 06:09:29;;;;;;;10.98;6.85;;;-1.10;99.90;;;;;;5087350;28;20071;-73
2021/12/21 06:27:28;;;;;;;6.88;5.70;;;-1.00;99.90;;;;;;5092236;28;20055;-71
2021/12/21 06:29:54;;;;;;;11.50;6.28;;;-1.00;99.90;;;;;;5091298;28;20480;-72
2021/12/21 06:32:20;;;;;;;12.77;6.50;;;-1.30;99.90;;;;;;5092621;28;20040;-72
2021/12/21 06:34:45;;;;;;;11.30;6.90;;;-1.00;99.90;;;;;;5089075;28;20108;-73
2021/12/21 06:37:12;;;;;;;13.23;6.13;;;-1.10;99.90;;;;;;5052049;28;20044;-71
2021/12/21 06:39:37;;;;;;;9.57;6.10;;;-1.40;99.90;;;;;;5089735;28;20047;-70
2021/12/21 06:42:04;;;;;;;9.35;6.70;;;-1.40;99.90;;;;;;5088981;28;20189;-70
2021/12/21 06:44:30;;;;;;;9.60;6.63;;;-1.40;99.90;;;;;;5088941;28;20151;-69
2021/12/21 06:52:16;;;;;;;8.82;5.85;;;-1.10;99.90;;;;;;5080591;28;20284;-72
2021/12/21 06:54:42;;;;;;;8.32;5.90;;;-1.10;99.90;;;;;;5062391;28;20052;-69
2021/12/21 06:57:08;;;;;;;10.60;5.68;;;-1.10;99.90;;;;;;5084625;28;20048;-72
2021/12/21 06:59:33;;;;;;;10.15;5.50;;;-1.30;99.90;;;;;;5089160;28;20127;-70
2021/12/21 07:01:59;;;;;;;10.00;6.30;;;-1.40;99.90;;;;;;5071478;28;20072;-70
2021/12/21 07:04:25;;;;;;;8.18;5.75;;;-1.20;99.90;;;;;;5088481;28;20048;-71
2021/12/21 07:06:53;;;;;;;8.15;6.00;;;-1.10;99.90;;;;;;5084168;28;20047;-73
2021/12/21 07:09:30;;;;;;;9.48;5.80;;;-1.20;99.90;;;;;;5088967;28;20131;-72
2021/12/21 07:12:16;;;;;;;10.38;5.72;;;-1.30;99.90;;;;;;5086863;28;20036;-73
2021/12/21 07:20:10;;;;;;;9.82;6.55;;;-1.20;99.90;;;;;;5088501;28;20182;-70
2021/12/21 07:22:36;;;;;;;8.43;6.10;;;-0.40;99.90;;;;;;5089458;28;20119;-70
2021/12/21 07:25:01;;;;;;;10.05;6.65;;;-1.40;99.90;;;;;;5090162;28;20048;-73
2021/12/21 07:27:27;;;;;;;11.63;6.63;;;-1.40;99.90;;;;;;5086434;28;20503;-73
2021/12/21 07:29:53;;;;;;;9.85;6.22;;;-1.30;99.90;;;;;;5088811;28;20920;-72
2021/12/21 07:32:18;;;;;;;9.30;6.25;;;-1.40;99.90;;;;;;5089660;28;20442;-69
2021/12/21 07:34:44;;;;;;;7.32;5.72;;;-1.20;99.90;;;;;;5089495;28;20047;-71
2021/12/21 07:37:10;;;;;;;6.28;5.25;;;-1.30;99.90;;;;;;5035787;28;20055;-72
2021/12/21 07:39:37;;;;;;;12.18;6.95;;;-1.20;99.90;;;;;;5084272;28;20173;-70
2021/12/21 07:42:04;;;;;;;9.70;6.47;;;-1.10;99.90;;;;;;5087152;28;20051;-71
2021/12/21 07:44:30;;;;;;;12.10;7.20;;;-1.40;99.90;;;;;;5088407;28;20043;-71
2021/12/21 07:46:55;;;;;;;12.48;6.55;;;-1.40;99.90;;;;;;5086972;28;20032;-73
2021/12/21 07:49:21;;;;;;;10.55;6.43;;;-1.30;99.90;;;;;;5088446;28;20783;-71
2021/12/21 07:51:48;;;;;;;8.35;5.85;;;-1.30;99.90;;;;;;5090685;28;20043;-70
2021/12/21 07:54:15;;;;;;;7.78;5.40;;;-1.40;99.90;;;;;;5088276;28;20040;-71
2021/12/21 07:56:41;;;;;;;8.25;6.00;;;-0.30;99.90;;;;;;5089457;28;20091;-73
2021/12/21 07:59:07;;;;;;;10.27;6.20;;;-1.20;99.90;;;;;;5091068;28;20072;-73
2021/12/21 08:01:33;;;;;;;9.30;5.82;;;-1.20;99.90;;;;;;5089572;28;20477;-73
2021/12/21 08:03:59;;;;;;;10.68;6.20;;;-1.40;99.90;;;;;;5088472;28;20127;-70
2021/12/21 08:06:28;;;;;;;12.35;5.75;;;-1.40;99.90;;;;;;5071806;28;20131;-73
2021/12/21 08:08:54;;;;;;;10.10;5.93;;;-1.40;99.90;;;;;;5073716;28;20044;-69
2021/12/21 08:13:58;;;;;;;13.48;9.05;;;-1.40;99.90;;;;;;5110000;28;20423;-72
2021/12/21 08:16:24;;;;;;;12.57;6.55;;;-1.30;99.90;;;;;;5090207;28;20115;-69
2021/12/21 08:18:50;;;;;;;11.27;7.32;;;-1.30;99.90;;;;;;5089661;28;20112;-70
2021/12/21 08:21:17;;;;;;;12.02;6.22;;;-0.30;99.90;;;;;;5071022;28;20066;-74
2021/12/21 08:23:43;;;;;;;9.85;6.85;;;-1.20;99.90;;;;;;5077263;28;20122;-74
2021/12/21 08:26:09;;;;;;;10.70;6.07;;;-1.10;99.90;;;;;;5088497;28;20119;-74
2021/12/21 08:28:35;;;;;;;15.43;6.95;;;-0.60;99.90;;;;;;5089043;28;20124;-70
2021/12/21 08:31:01;;;;;;;10.65;6.95;;;-1.00;99.90;;;;;;5088821;28;20130;-71
2021/12/21 08:33:27;;;;;;;9.30;6.07;;;-0.90;99.90;;;;;;5090606;28;20853;-73
2021/12/21 08:35:52;;;;;;;12.27;6.45;;;-0.90;99.90;;;;;;5075284;28;20068;-70
2021/12/21 08:38:19;;;;;;;10.57;7.10;;;-0.80;99.90;;;;;;5094677;28;20044;-72
2021/12/21 08:40:49;;;;;;;9.70;6.22;;;-0.70;99.90;;;;;;5093344;28;20422;-71
2021/12/21 08:43:24;;;;;;;16.60;9.93;;;-0.60;99.90;;;;;;5093077;28;20051;-72
2021/12/21 08:45:52;;;;;;;10.52;7.13;;;-0.50;99.90;;;;;;5093262;28;20431;-73
2021/12/21 08:48:18;;;;;;;10.02;6.57;;;-0.60;99.90;;;;;;5094058;28;20119;-71
2021/12/21 08:50:45;;;;;;;11.23;6.25;;;-0.60;99.90;;;;;;5093351;28;20131;-73
2021/12/21 08:53:13;;;;;;;10.40;7.38;;;-0.70;99.90;;;;;;5093546;28;20388;-72
2021/12/21 08:55:41;;;;;;;13.52;6.93;;;0.20;99.90;;;;;;5092258;28;20047;-71
2021/12/21 08:58:07;;;;;;;15.15;8.27;;;-0.50;99.90;;;;;;5093830;28;20050;-71
2021/12/21 09:00:33;;;;;;;10.90;7.93;;;-0.50;99.90;;;;;;5092609;28;20043;-72
2021/12/21 09:02:59;;;;;;;16.65;8.85;;;-0.50;99.90;;;;;;5092461;28;20468;-71
2021/12/21 09:05:29;;;;;;;14.90;8.90;;;-0.50;99.90;;;;;;5092547;28;20040;-72
2021/12/21 09:07:55;;;;;;;12.50;7.68;;;-0.40;99.90;;;;;;5092397;28;20044;-70
2021/12/21 09:10:22;;;;;;;9.32;6.97;;;0.30;99.90;;;;;;5092784;28;20048;-70
2021/12/21 09:12:49;;;;;;;11.88;7.18;;;-0.30;99.90;;;;;;5093912;28;20040;-72
2021/12/21 09:15:16;;;;;;;14.07;8.32;;;-0.20;99.90;;;;;;5093646;28;20048;-72
2021/12/21 09:17:44;;;;;;;12.70;7.05;;;-0.10;99.90;;;;;;5091123;28;20377;-70
2021/12/21 09:20:13;;;;;;;15.60;9.00;;;-0.10;99.90;;;;;;5092381;28;20052;-70
2021/12/21 09:22:39;;;;;;;15.48;9.95;;;1.30;99.90;;;;;;5091997;28;20047;-70
2021/12/21 09:25:06;;;;;;;16.95;9.27;;;0.10;99.90;;;;;;5075456;28;20044;-73
2021/12/21 09:27:32;;;;;;;17.50;10.70;;;0.70;99.90;;;;;;5091139;28;20043;-70
2021/12/21 09:29:57;;;;;;;14.68;8.05;;;1.20;99.90;;;;;;5092478;28;20086;-74
2021/12/21 09:32:25;;;;;;;12.32;7.68;;;1.70;99.90;;;;;;5093141;28;20129;-71
2021/12/21 09:34:51;;;;;;;10.43;6.97;;;2.20;99.90;;;;;;5091803;28;20496;-75
2021/12/21 09:37:20;;;;;;;10.82;7.20;;;2.50;99.90;;;;;;5091875;28;20511;-72
2021/12/21 09:39:49;;;;;;;9.48;6.65;;;2.90;99.90;;;;;;5090940;28;20118;-71
2021/12/21 09:42:21;;;;;;;9.13;6.63;;;2.80;99.90;;;;;;5086305;28;20130;-71
2021/12/21 09:44:47;;;;;;;9.45;6.55;;;3.00;99.90;;;;;;5084127;28;20043;-70
2021/12/21 09:47:14;;;;;;;13.02;6.20;;;3.10;99.90;;;;;;5082196;28;20089;-72
2021/12/21 09:49:43;;;;;;;13.90;5.97;;;3.20;99.90;;;;;;5084084;28;20180;-70
2021/12/21 09:52:10;;;;;;;9.70;5.68;;;3.20;99.90;;;;;;5067665;28;20793;-73
2021/12/21 09:54:38;;;;;;;9.13;5.95;;;3.40;99.90;;;;;;5083053;28;20051;-68
2021/12/21 09:57:05;;;;;;;7.72;5.10;;;3.80;99.90;;;;;;5084410;28;20060;-69
2021/12/21 09:59:31;;;;;;;9.10;5.65;;;3.90;99.90;;;;;;5085826;28;20040;-71
2021/12/21 10:01:57;;;;;;;11.85;5.32;;;4.00;99.90;;;;;;5084955;28;20557;-68
2021/12/21 10:04:26;;;;;;;9.35;5.70;;;3.80;99.90;;;;;;5086398;28;20064;-70
2021/12/21 10:06:54;;;;;;;9.32;6.18;;;3.40;99.90;;;;;;5085478;28;20511;-69
2021/12/21 10:09:24;;;;;;;11.68;6.03;;;3.50;99.90;;;;;;5085330;28;20369;-69
2021/12/21 10:11:51;;;;;;;8.77;6.15;;;3.10;99.90;;;;;;5086129;28;20054;-71
2021/12/21 10:14:18;;;;;;;7.82;5.70;;;3.10;99.90;;;;;;5084466;28;20048;-70
2021/12/21 10:16:47;;;;;;;7.97;6.18;;;3.40;99.90;;;;;;5083639;28;20043;-70
2021/12/21 10:19:23;;;;;;;10.57;5.97;;;3.50;99.90;;;;;;5080167;28;20064;-71
2021/12/21 10:21:49;;;;;;;9.27;5.53;;;3.80;99.90;;;;;;5085555;28;20499;-70
2021/12/21 10:24:28;;;;;;;7.22;4.85;;;3.60;99.90;;;;;;5083192;28;20445;-69
2021/12/21 10:27:07;;;;;;;9.20;5.53;;;3.00;99.90;;;;;;5064780;28;20092;-70
2021/12/21 10:29:51;;;;;;;6.78;5.40;;;2.60;99.90;;;;;;5063224;28;20186;-69
2021/12/21 10:32:35;;;;;;;12.43;5.78;;;2.60;99.90;;;;;;5063900;28;20059;-70
2021/12/21 10:35:07;;;;;;;8.05;5.28;;;2.10;99.90;;;;;;5062348;28;20044;-70
2021/12/21 10:37:37;;;;;;;7.70;5.60;;;2.00;99.90;;;;;;5077226;28;20050;-70
2021/12/21 10:40:10;;;;;;;6.65;5.32;;;2.20;99.90;;;;;;5083008;28;20044;-70
2021/12/21 10:42:59;;;;;;;7.30;4.97;;;2.80;99.90;;;;;;5082607;28;20126;-70
2021/12/21 10:45:27;;;;;;;9.98;6.05;;;3.30;99.90;;;;;;5063411;28;20040;-70
2021/12/21 10:47:52;;;;;;;6.97;5.68;;;3.60;99.90;;;;;;5062779;28;20511;-70
2021/12/21 10:50:18;;;;;;;7.93;5.43;;;4.30;99.90;;;;;;5080342;28;20056;-71
2021/12/21 10:52:51;;;;;;;7.63;5.25;;;4.40;99.90;;;;;;5079954;28;20044;-70
2021/12/21 10:55:22;;;;;;;7.82;5.60;;;4.60;99.90;;;;;;5082356;28;20504;-72
2021/12/21 10:57:48;;;;;;;9.05;5.28;;;4.90;99.90;;;;;;5078019;28;20041;-72
2021/12/21 11:00:16;;;;;;;8.98;5.65;;;5.70;99.90;;;;;;5093486;28;20070;-73
2021/12/21 11:02:44;;;;;;;6.82;5.22;;;5.40;99.90;;;;;;5073070;28;20074;-73
2021/12/21 11:05:15;;;;;;;10.77;5.68;;;5.80;99.90;;;;;;5080968;28;20048;-70
2021/12/21 11:07:50;;;;;;;12.15;5.65;;;5.90;99.90;;;;;;5081540;28;20040;-73
2021/12/21 11:10:28;;;;;;;7.55;5.32;;;5.60;99.90;;;;;;5078373;28;20132;-74
2021/12/21 11:13:18;;;;;;;7.78;5.50;;;6.00;99.90;;;;;;5079212;28;20143;-74
2021/12/21 11:15:51;;;;;;;9.57;5.18;;;6.10;99.90;;;;;;5061525;28;20193;-71
2021/12/21 11:18:17;;;;;;;6.22;5.07;;;6.30;99.90;;;;;;5063954;28;20395;-71
2021/12/21 11:20:45;;;;;;;7.85;4.88;;;6.30;99.90;;;;;;5081298;28;20044;-73
2021/12/21 11:23:13;;;;;;;6.30;4.90;;;6.60;99.90;;;;;;5081169;28;20039;-72
2021/12/21 11:25:41;;;;;;;9.15;5.05;;;6.50;99.90;;;;;;5082345;28;20052;-73
2021/12/21 11:28:07;;;;;;;7.82;4.82;;;6.30;99.90;;;;;;5083785;28;20562;-72
2021/12/21 11:30:34;;;;;;;5.90;4.40;;;6.50;99.90;;;;;;5082695;28;20052;-71
2021/12/21 11:33:10;;;;;;;9.20;4.75;;;6.10;99.90;;;;;;5087945;28;20044;-72
2021/12/21 11:38:09;;;;;;;11.52;5.38;;;5.00;99.90;;;;;;5083111;28;20051;-73
2021/12/21 11:40:39;;;;;;;10.70;5.37;;;5.30;99.90;;;;;;5083316;28;20040;-72
2021/12/21 11:43:11;;;;;;;8.05;5.10;;;6.00;99.90;;;;;;5098598;28;20290;-72
2021/12/21 11:45:55;;;;;;;6.95;4.57;;;6.30;99.90;;;;;;5081739;28;20043;-71
2021/12/21 11:48:27;;;;;;;8.20;4.82;;;6.70;99.90;;;;;;5081982;28;20052;-74
2021/12/21 11:51:01;;;;;;;5.93;4.53;;;6.90;99.90;;;;;;5080788;28;20129;-72
2021/12/21 11:53:28;;;;;;;8.00;4.57;;;6.40;99.90;;;;;;5083570;28;20176;-73
2021/12/21 11:55:54;;;;;;;7.35;5.13;;;6.10;99.90;;;;;;5081239;28;20056;-73
2021/12/21 11:58:23;;;;;;;8.50;4.78;;;6.30;99.90;;;;;;5082597;28;20196;-73
2021/12/21 12:00:58;;;;;;;8.27;5.07;;;6.80;99.90;;;;;;5081400;28;20048;-75
2021/12/21 12:03:24;;;;;;;;;;;7.00;99.90;;;;;;5083067;28;20585;-72
2021/12/21 12:06:03;;;;;;;7.32;3.83;;;6.30;99.90;;;;;;5081833;28;19926;-75
2021/12/21 12:08:44;;;;;;;6.55;4.13;;;6.20;99.90;;;;;;5086218;28;20047;-72
2021/12/21 12:11:22;;;;;;;8.80;4.57;;;6.10;99.90;;;;;;5085684;28;20116;-71
2021/12/21 12:13:48;;;;;;;8.15;4.40;;;5.70;99.90;;;;;;5085692;28;20925;-73
2021/12/21 12:16:16;;;;;;;7.25;3.65;;;5.60;99.90;;;;;;5086078;28;20071;-76
2021/12/21 12:18:44;;;;;;;5.00;3.55;;;5.30;99.90;;;;;;5068684;28;20048;-73
2021/12/21 12:21:19;;;;;;;6.82;4.30;;;5.20;99.90;;;;;;5085584;28;20044;-70
2021/12/21 12:23:49;;;;;;;;;;;4.90;99.90;;;;;;5085149;28;20036;-74
2021/12/21 12:26:21;;;;;;;5.72;3.45;;;4.40;99.90;;;;;;5087518;28;19919;-71
2021/12/21 12:28:47;;;;;;;6.55;3.72;;;4.20;99.90;;;;;;5084915;28;20101;-72
2021/12/21 12:31:27;;;;;;;6.55;3.90;;;4.10;99.90;;;;;;5080416;28;20052;-73
2021/12/21 12:33:52;;;;;;;4.50;3.22;;;3.90;99.90;;;;;;5064891;28;20048;-71
2021/12/21 12:36:18;;;;;;;5.15;3.90;;;3.80;99.90;;;;;;5065114;28;20052;-71
2021/12/21 12:38:44;;;;;;;5.85;3.80;;;3.60;99.90;;;;;;5081895;28;20491;-74
2021/12/21 12:41:14;;;;;;;6.45;3.60;;;3.50;99.90;;;;;;5084962;28;20047;-74
2021/12/21 12:43:44;;;;;;;4.07;3.10;;;3.40;99.90;;;;;;5084657;28;20039;-73
2021/12/21 12:46:23;;;;;;;6.25;3.97;;;3.30;99.90;;;;;;5085652;28;20143;-73
2021/12/21 12:48:48;;;;;;;6.15;3.95;;;3.20;99.90;;;;;;5084640;28;20047;-72
2021/12/21 12:51:44;;;;;;;5.20;3.65;;;3.10;99.90;;;;;;5085638;28;20043;-73
2021/12/21 12:54:14;;;;;;;7.47;3.60;;;3.10;99.90;;;;;;5072033;28;20129;-71
2021/12/21 12:56:40;;;;;;;5.93;3.60;;;3.40;99.90;;;;;;5084849;28;20052;-71
2021/12/21 12:59:06;;;;;;;6.28;3.58;;;3.10;99.90;;;;;;5071161;28;20036;-70
2021/12/21 13:01:38;;;;;;;5.45;3.58;;;3.20;99.90;;;;;;5064906;28;20091;-73
2021/12/21 13:04:11;;;;;;;6.60;3.72;;;3.00;99.90;;;;;;5067550;28;20044;-73
2021/12/21 13:06:38;;;;;;;6.85;3.90;;;3.10;99.90;;;;;;5084979;28;20052;-74
2021/12/21 13:09:06;;;;;;;8.38;3.88;;;3.00;99.90;;;;;;5084427;28;20048;-71
2021/12/21 13:11:35;;;;;;;7.32;3.58;;;3.40;99.90;;;;;;5085714;28;20094;-72
2021/12/21 13:14:01;;;;;;;5.70;3.70;;;3.00;99.90;;;;;;5085213;28;20082;-72
2021/12/21 13:16:32;;;;;;;5.70;3.42;;;3.00;99.90;;;;;;5085587;28;20059;-72
2021/12/21 13:19:07;;;;;;;6.60;4.05;;;3.00;99.90;;;;;;5074455;28;20535;-71
2021/12/21 13:21:47;;;;;;;7.35;3.72;;;3.10;99.90;;;;;;5067548;28;20507;-71
2021/12/21 13:24:19;;;;;;;5.38;3.63;;;3.20;99.90;;;;;;5074063;28;20044;-73
2021/12/21 13:26:51;;;;;;;8.27;4.18;;;3.70;99.90;;;;;;5085403;28;20395;-71
2021/12/21 13:29:21;;;;;;;6.35;3.63;;;3.30;99.90;;;;;;5068993;28;20117;-73
2021/12/21 13:31:50;;;;;;;7.45;4.30;;;3.30;99.90;;;;;;5085347;28;20127;-71
2021/12/21 13:34:16;;;;;;;6.60;3.75;;;3.30;99.90;;;;;;5086436;28;20040;-71
2021/12/21 13:36:49;;;;;;;5.50;3.50;;;3.30;99.90;;;;;;5069515;28;20574;-73
2021/12/21 13:39:23;;;;;;;5.47;3.70;;;3.30;99.90;;;;;;5086787;28;20044;-71
2021/12/21 13:41:53;;;;;;;6.85;3.97;;;3.90;99.90;;;;;;5085331;28;20044;-71
2021/12/21 13:44:35;;;;;;;6.93;3.78;;;3.40;99.90;;;;;;5086334;28;20044;-71
2021/12/21 13:47:06;;;;;;;7.60;3.75;;;3.50;99.90;;;;;;5086017;28;20038;-71
2021/12/21 13:49:31;;;;;;;6.25;4.40;;;3.40;99.90;;;;;;5086530;28;20052;-72
2021/12/21 13:52:01;;;;;;;5.53;3.65;;;3.60;99.90;;;;;;5052318;28;20039;-71
2021/12/21 13:54:28;;;;;;;7.90;3.78;;;3.90;99.90;;;;;;5085511;28;20055;-71
2021/12/21 13:56:54;;;;;;;8.05;4.75;;;3.70;99.90;;;;;;5085022;28;20048;-71
2021/12/21 13:59:21;;;;;;;6.53;3.50;;;3.60;99.90;;;;;;5085999;28;20054;-72
2021/12/21 14:01:52;;;;;;;9.85;4.38;;;3.50;99.90;;;;;;5085050;28;20052;-69